sensor_id;sensor_type;location;lat;lon;timestamp;pressure;altitude;pressure_sealevel;temperature;humidity
40994;BME280;26722;43.212;27.932;2023-03-03T00:01:52;55230.09;;;-146.72;65.57
40994;BME280;26722;43.212;27.932;2023-03-03T00:04:17;55240.66;;;-146.72;65.66
40994;BME280;26722;43.212;27.932;2023-03-03T00:06:44;55242.78;;;-146.72;65.69
40994;BME280;26722;43.212;27.932;2023-03-03T00:09:09;55228.00;;;-146.72;65.85
40994;BME280;26722;43.212;27.932;2023-03-03T00:11:35;55238.53;;;-146.72;65.53
40994;BME280;26722;43.212;27.932;2023-03-03T00:14:00;55215.31;;;-146.72;65.42
40994;BME280;26722;43.212;27.932;2023-03-03T00:16:37;55259.66;;;-146.72;65.42
40994;BME280;26722;43.212;27.932;2023-03-03T00:19:12;55221.66;;;-146.72;65.17
40994;BME280;26722;43.212;27.932;2023-03-03T00:21:44;55228.00;;;-146.72;64.82
40994;BME280;26722;43.212;27.932;2023-03-03T00:24:17;55221.66;;;-146.72;65.02
40994;BME280;26722;43.212;27.932;2023-03-03T00:27:22;55221.66;;;-146.72;64.83
40994;BME280;26722;43.212;27.932;2023-03-03T00:29:56;55217.44;;;-146.72;64.43
40994;BME280;26722;43.212;27.932;2023-03-03T00:32:30;55242.78;;;-146.72;64.06
40994;BME280;26722;43.212;27.932;2023-03-03T00:35:18;55221.66;;;-146.72;64.39
40994;BME280;26722;43.212;27.932;2023-03-03T00:37:48;55223.78;;;-146.72;64.40
40994;BME280;26722;43.212;27.932;2023-03-03T00:40:25;55242.78;;;-146.72;64.43
40994;BME280;26722;43.212;27.932;2023-03-03T00:42:57;55236.44;;;-146.72;63.96
40994;BME280;26722;43.212;27.932;2023-03-03T00:45:30;55217.44;;;-146.72;63.99
40994;BME280;26722;43.212;27.932;2023-03-03T00:48:10;55221.66;;;-146.72;64.08
40994;BME280;26722;43.212;27.932;2023-03-03T00:50:42;55213.22;;;-146.72;64.28
40994;BME280;26722;43.212;27.932;2023-03-03T00:53:18;55232.22;;;-146.72;64.28
40994;BME280;26722;43.212;27.932;2023-03-03T00:55:45;55230.09;;;-146.72;63.94
40994;BME280;26722;43.212;27.932;2023-03-03T00:58:11;55221.66;;;-146.72;63.68
40994;BME280;26722;43.212;27.932;2023-03-03T01:00:38;55244.88;;;-146.72;63.11
40994;BME280;26722;43.212;27.932;2023-03-03T01:03:09;55236.44;;;-146.72;63.00
40994;BME280;26722;43.212;27.932;2023-03-03T01:05:36;55215.31;;;-146.72;63.17
40994;BME280;26722;43.212;27.932;2023-03-03T01:08:03;55217.44;;;-146.72;63.35
40994;BME280;26722;43.212;27.932;2023-03-03T01:10:31;55228.00;;;-146.72;62.85
40994;BME280;26722;43.212;27.932;2023-03-03T01:12:58;55223.78;;;-146.72;62.67
40994;BME280;26722;43.212;27.932;2023-03-03T01:15:24;55236.44;;;-146.72;63.01
40994;BME280;26722;43.212;27.932;2023-03-03T01:17:50;55211.09;;;-146.72;62.80
40994;BME280;26722;43.212;27.932;2023-03-03T01:20:15;55255.44;;;-146.72;63.15
40994;BME280;26722;43.212;27.932;2023-03-03T01:22:41;55234.31;;;-146.72;62.70
40994;BME280;26722;43.212;27.932;2023-03-03T01:25:08;55223.78;;;-146.72;62.81
40994;BME280;26722;43.212;27.932;2023-03-03T01:27:35;55232.22;;;-146.72;62.95
40994;BME280;26722;43.212;27.932;2023-03-03T01:30:01;55232.22;;;-146.72;62.80
40994;BME280;26722;43.212;27.932;2023-03-03T01:32:27;55225.88;;;-146.72;63.00
40994;BME280;26722;43.212;27.932;2023-03-03T01:34:53;55225.88;;;-146.72;63.17
40994;BME280;26722;43.212;27.932;2023-03-03T01:37:19;55230.09;;;-146.72;62.94
40994;BME280;26722;43.212;27.932;2023-03-03T01:39:52;55221.66;;;-146.72;62.97
40994;BME280;26722;43.212;27.932;2023-03-03T01:42:18;55223.78;;;-146.72;63.25
40994;BME280;26722;43.212;27.932;2023-03-03T01:44:44;55230.09;;;-146.72;63.36
40994;BME280;26722;43.212;27.932;2023-03-03T01:47:13;55230.09;;;-146.72;63.08
40994;BME280;26722;43.212;27.932;2023-03-03T01:49:48;55223.78;;;-146.72;62.53
40994;BME280;26722;43.212;27.932;2023-03-03T01:52:35;55230.09;;;-146.72;62.50
40994;BME280;26722;43.212;27.932;2023-03-03T01:55:11;55225.88;;;-146.72;62.44
40994;BME280;26722;43.212;27.932;2023-03-03T01:57:41;55217.44;;;-146.72;62.72
40994;BME280;26722;43.212;27.932;2023-03-03T02:00:09;55225.88;;;-146.72;62.83
40994;BME280;26722;43.212;27.932;2023-03-03T02:02:35;55221.66;;;-146.72;62.63
40994;BME280;26722;43.212;27.932;2023-03-03T02:05:01;55230.09;;;-146.72;62.70
40994;BME280;26722;43.212;27.932;2023-03-03T02:07:28;55198.44;;;-146.72;62.34
40994;BME280;26722;43.212;27.932;2023-03-03T02:10:01;55209.00;;;-146.72;62.44
40994;BME280;26722;43.212;27.932;2023-03-03T02:12:35;55185.75;;;-146.72;62.01
40994;BME280;26722;43.212;27.932;2023-03-03T02:15:14;55217.44;;;-146.72;62.06
40994;BME280;26722;43.212;27.932;2023-03-03T02:17:40;55204.75;;;-146.72;61.67
40994;BME280;26722;43.212;27.932;2023-03-03T02:20:13;55217.44;;;-146.72;61.63
40994;BME280;26722;43.212;27.932;2023-03-03T02:26:03;55200.53;;;-146.72;61.18
40994;BME280;26722;43.212;27.932;2023-03-03T02:28:28;55204.75;;;-146.72;61.36
40994;BME280;26722;43.212;27.932;2023-03-03T02:30:55;55232.22;;;-146.72;61.26
40994;BME280;26722;43.212;27.932;2023-03-03T02:33:21;55211.09;;;-146.72;61.55
40994;BME280;26722;43.212;27.932;2023-03-03T02:35:47;55213.22;;;-146.72;61.76
40994;BME280;26722;43.212;27.932;2023-03-03T02:38:36;55232.22;;;-146.72;62.04
40994;BME280;26722;43.212;27.932;2023-03-03T02:46:19;55213.22;;;-146.72;61.55
40994;BME280;26722;43.212;27.932;2023-03-03T02:48:45;55223.78;;;-146.72;62.16
40994;BME280;26722;43.212;27.932;2023-03-03T02:51:10;55221.66;;;-146.72;62.54
40994;BME280;26722;43.212;27.932;2023-03-03T02:53:36;55249.09;;;-146.72;62.22
40994;BME280;26722;43.212;27.932;2023-03-03T02:56:01;55209.00;;;-146.72;62.39
40994;BME280;26722;43.212;27.932;2023-03-03T02:58:29;55242.78;;;-146.72;62.44
40994;BME280;26722;43.212;27.932;2023-03-03T03:00:54;55202.66;;;-146.72;61.86
40994;BME280;26722;43.212;27.932;2023-03-03T03:03:20;55213.22;;;-146.72;61.71
40994;BME280;26722;43.212;27.932;2023-03-03T03:05:45;55238.53;;;-146.72;61.55
40994;BME280;26722;43.212;27.932;2023-03-03T03:08:11;55217.44;;;-146.72;61.92
40994;BME280;26722;43.212;27.932;2023-03-03T03:10:36;55247.00;;;-146.72;62.12
40994;BME280;26722;43.212;27.932;2023-03-03T03:13:02;55225.88;;;-146.72;62.21
40994;BME280;26722;43.212;27.932;2023-03-03T03:15:27;55232.22;;;-146.72;62.28
40994;BME280;26722;43.212;27.932;2023-03-03T03:17:53;55206.88;;;-146.72;62.14
40994;BME280;26722;43.212;27.932;2023-03-03T03:20:18;55223.78;;;-146.72;62.23
40994;BME280;26722;43.212;27.932;2023-03-03T03:22:44;55202.66;;;-146.72;61.91
40994;BME280;26722;43.212;27.932;2023-03-03T03:25:09;55225.88;;;-146.72;62.01
40994;BME280;26722;43.212;27.932;2023-03-03T03:27:35;55204.75;;;-146.72;61.92
40994;BME280;26722;43.212;27.932;2023-03-03T03:30:00;55230.09;;;-146.72;62.00
40994;BME280;26722;43.212;27.932;2023-03-03T03:32:25;55213.22;;;-146.72;62.06
40994;BME280;26722;43.212;27.932;2023-03-03T03:34:51;55209.00;;;-146.72;61.96
40994;BME280;26722;43.212;27.932;2023-03-03T03:37:16;55221.66;;;-146.72;61.67
40994;BME280;26722;43.212;27.932;2023-03-03T03:39:42;55230.09;;;-146.72;61.85
40994;BME280;26722;43.212;27.932;2023-03-03T03:42:07;55223.78;;;-146.72;61.70
40994;BME280;26722;43.212;27.932;2023-03-03T03:44:33;55225.88;;;-146.72;62.20
40994;BME280;26722;43.212;27.932;2023-03-03T03:46:58;55215.31;;;-146.72;62.04
40994;BME280;26722;43.212;27.932;2023-03-03T03:49:24;55228.00;;;-146.72;62.01
40994;BME280;26722;43.212;27.932;2023-03-03T03:51:49;55225.88;;;-146.72;61.75
40994;BME280;26722;43.212;27.932;2023-03-03T03:54:14;55225.88;;;-146.72;61.51
40994;BME280;26722;43.212;27.932;2023-03-03T03:56:40;55219.53;;;-146.72;61.76
40994;BME280;26722;43.212;27.932;2023-03-03T03:59:06;55228.00;;;-146.72;61.47
40994;BME280;26722;43.212;27.932;2023-03-03T04:01:32;55228.00;;;-146.72;61.74
40994;BME280;26722;43.212;27.932;2023-03-03T04:03:57;55238.53;;;-146.72;61.92
40994;BME280;26722;43.212;27.932;2023-03-03T04:06:23;55236.44;;;-146.72;61.86
40994;BME280;26722;43.212;27.932;2023-03-03T04:08:48;55217.44;;;-146.72;61.95
40994;BME280;26722;43.212;27.932;2023-03-03T04:11:14;55251.22;;;-146.72;62.52
40994;BME280;26722;43.212;27.932;2023-03-03T04:13:39;55223.78;;;-146.72;62.47
40994;BME280;26722;43.212;27.932;2023-03-03T04:16:05;55238.53;;;-146.72;62.70
40994;BME280;26722;43.212;27.932;2023-03-03T04:18:31;55223.78;;;-146.72;62.91
40994;BME280;26722;43.212;27.932;2023-03-03T04:20:56;55247.00;;;-146.72;63.09
40994;BME280;26722;43.212;27.932;2023-03-03T04:23:22;55228.00;;;-146.72;63.10
40994;BME280;26722;43.212;27.932;2023-03-03T04:25:47;55217.44;;;-146.72;62.98
40994;BME280;26722;43.212;27.932;2023-03-03T04:28:14;55242.78;;;-146.72;63.21
40994;BME280;26722;43.212;27.932;2023-03-03T04:30:41;55251.22;;;-146.72;63.35
40994;BME280;26722;43.212;27.932;2023-03-03T04:33:06;55230.09;;;-146.72;63.47
40994;BME280;26722;43.212;27.932;2023-03-03T04:35:32;55240.66;;;-146.72;63.80
40994;BME280;26722;43.212;27.932;2023-03-03T04:37:57;55236.44;;;-146.72;63.61
40994;BME280;26722;43.212;27.932;2023-03-03T04:40:23;55240.66;;;-146.72;63.67
40994;BME280;26722;43.212;27.932;2023-03-03T04:42:48;55253.31;;;-146.72;63.63
40994;BME280;26722;43.212;27.932;2023-03-03T04:45:14;55242.78;;;-146.72;63.47
40994;BME280;26722;43.212;27.932;2023-03-03T04:47:40;55242.78;;;-146.72;63.65
40994;BME280;26722;43.212;27.932;2023-03-03T04:50:06;55217.44;;;-146.72;63.24
40994;BME280;26722;43.212;27.932;2023-03-03T04:52:33;55238.53;;;-146.72;63.31
40994;BME280;26722;43.212;27.932;2023-03-03T04:54:58;55219.53;;;-146.72;63.17
40994;BME280;26722;43.212;27.932;2023-03-03T04:57:23;55213.22;;;-146.72;63.11
40994;BME280;26722;43.212;27.932;2023-03-03T04:59:49;55253.31;;;-146.72;63.13
40994;BME280;26722;43.212;27.932;2023-03-03T05:02:15;55238.53;;;-146.72;63.23
40994;BME280;26722;43.212;27.932;2023-03-03T05:04:41;55230.09;;;-146.72;63.27
40994;BME280;26722;43.212;27.932;2023-03-03T05:07:07;55230.09;;;-146.72;63.60
40994;BME280;26722;43.212;27.932;2023-03-03T05:09:33;55236.44;;;-146.72;63.41
40994;BME280;26722;43.212;27.932;2023-03-03T05:11:58;55257.56;;;-146.72;63.45
40994;BME280;26722;43.212;27.932;2023-03-03T05:14:25;55242.78;;;-146.72;63.30
40994;BME280;26722;43.212;27.932;2023-03-03T05:16:51;55251.22;;;-146.72;63.10
40994;BME280;26722;43.212;27.932;2023-03-03T05:19:16;55223.78;;;-146.72;63.17
40994;BME280;26722;43.212;27.932;2023-03-03T05:21:42;55217.44;;;-146.72;62.32
40994;BME280;26722;43.212;27.932;2023-03-03T05:24:08;55242.78;;;-146.72;62.59
40994;BME280;26722;43.212;27.932;2023-03-03T05:26:34;55213.22;;;-146.72;61.88
40994;BME280;26722;43.212;27.932;2023-03-03T05:29:00;55228.00;;;-146.72;61.71
40994;BME280;26722;43.212;27.932;2023-03-03T05:31:25;55234.31;;;-146.72;61.80
40994;BME280;26722;43.212;27.932;2023-03-03T05:33:52;55232.22;;;-146.72;61.67
40994;BME280;26722;43.212;27.932;2023-03-03T05:36:18;55206.88;;;-146.72;61.68
40994;BME280;26722;43.212;27.932;2023-03-03T05:38:43;55240.66;;;-146.72;60.61
40994;BME280;26722;43.212;27.932;2023-03-03T05:41:09;55213.22;;;-146.72;60.45
40994;BME280;26722;43.212;27.932;2023-03-03T05:43:34;55209.00;;;-146.72;60.23
40994;BME280;26722;43.212;27.932;2023-03-03T05:45:59;55217.44;;;-146.72;60.58
40994;BME280;26722;43.212;27.932;2023-03-03T05:48:26;55219.53;;;-146.72;60.70
40994;BME280;26722;43.212;27.932;2023-03-03T05:50:51;55232.22;;;-146.72;60.66
40994;BME280;26722;43.212;27.932;2023-03-03T05:53:17;55211.09;;;-146.72;59.97
40994;BME280;26722;43.212;27.932;2023-03-03T05:55:42;55211.09;;;-146.72;60.24
40994;BME280;26722;43.212;27.932;2023-03-03T05:58:08;55225.88;;;-146.72;60.12
40994;BME280;26722;43.212;27.932;2023-03-03T06:00:33;55230.09;;;-146.72;59.78
40994;BME280;26722;43.212;27.932;2023-03-03T06:02:59;55215.31;;;-146.72;59.62
40994;BME280;26722;43.212;27.932;2023-03-03T06:05:25;55213.22;;;-146.72;59.66
40994;BME280;26722;43.212;27.932;2023-03-03T06:07:50;55215.31;;;-146.72;60.36
40994;BME280;26722;43.212;27.932;2023-03-03T06:10:16;55211.09;;;-146.72;59.91
40994;BME280;26722;43.212;27.932;2023-03-03T06:12:41;55209.00;;;-146.72;59.38
40994;BME280;26722;43.212;27.932;2023-03-03T06:15:08;55230.09;;;-146.72;58.92
40994;BME280;26722;43.212;27.932;2023-03-03T06:17:34;55202.66;;;-146.72;58.98
40994;BME280;26722;43.212;27.932;2023-03-03T06:20:00;55192.09;;;-146.72;57.97
40994;BME280;26722;43.212;27.932;2023-03-03T06:22:25;55204.75;;;-146.72;58.31
40994;BME280;26722;43.212;27.932;2023-03-03T06:24:51;55209.00;;;-146.72;57.94
40994;BME280;26722;43.212;27.932;2023-03-03T06:27:17;55202.66;;;-146.72;57.92
40994;BME280;26722;43.212;27.932;2023-03-03T06:29:43;55194.22;;;-146.72;57.76
40994;BME280;26722;43.212;27.932;2023-03-03T06:32:09;55211.09;;;-146.72;58.17
40994;BME280;26722;43.212;27.932;2023-03-03T06:34:34;55217.44;;;-146.72;57.32
40994;BME280;26722;43.212;27.932;2023-03-03T06:37:00;55213.22;;;-146.72;57.14
40994;BME280;26722;43.212;27.932;2023-03-03T06:39:25;55196.31;;;-146.72;56.90
40994;BME280;26722;43.212;27.932;2023-03-03T06:41:51;55211.09;;;-146.72;56.69
40994;BME280;26722;43.212;27.932;2023-03-03T06:44:16;55190.00;;;-146.72;57.03
40994;BME280;26722;43.212;27.932;2023-03-03T06:46:42;55185.75;;;-146.72;56.69
40994;BME280;26722;43.212;27.932;2023-03-03T06:49:07;55192.09;;;-146.72;56.34
40994;BME280;26722;43.212;27.932;2023-03-03T06:51:35;55181.53;;;-146.72;56.46
40994;BME280;26722;43.212;27.932;2023-03-03T06:54:19;55196.31;;;-146.72;56.59
40994;BME280;26722;43.212;27.932;2023-03-03T06:56:45;55200.53;;;-146.72;55.86
40994;BME280;26722;43.212;27.932;2023-03-03T06:59:13;55192.09;;;-146.72;55.70
40994;BME280;26722;43.212;27.932;2023-03-03T07:01:39;55198.44;;;-146.72;55.67
40994;BME280;26722;43.212;27.932;2023-03-03T07:04:28;55190.00;;;-146.72;55.88
40994;BME280;26722;43.212;27.932;2023-03-03T07:06:56;55187.88;;;-146.72;56.20
40994;BME280;26722;43.212;27.932;2023-03-03T07:12:31;55206.88;;;-146.72;55.74
40994;BME280;26722;43.212;27.932;2023-03-03T07:14:46;55179.44;;;-146.72;55.77
40994;BME280;26722;43.212;27.932;2023-03-03T07:17:19;55194.22;;;-146.72;55.94
40994;BME280;26722;43.212;27.932;2023-03-03T07:19:45;55196.31;;;-146.72;56.19
40994;BME280;26722;43.212;27.932;2023-03-03T07:22:16;55187.88;;;-146.72;56.24
40994;BME280;26722;43.212;27.932;2023-03-03T07:24:53;55196.31;;;-146.72;56.17
40994;BME280;26722;43.212;27.932;2023-03-03T07:27:28;55185.75;;;-146.72;55.32
40994;BME280;26722;43.212;27.932;2023-03-03T07:30:15;55194.22;;;-146.72;55.29
40994;BME280;26722;43.212;27.932;2023-03-03T07:32:44;55190.00;;;-146.72;55.11
40994;BME280;26722;43.212;27.932;2023-03-03T07:35:40;55190.00;;;-146.72;55.48
40994;BME280;26722;43.212;27.932;2023-03-03T07:38:28;55225.88;;;-146.72;55.51
40994;BME280;26722;43.212;27.932;2023-03-03T07:40:57;55170.97;;;-146.72;55.32
40994;BME280;26722;43.212;27.932;2023-03-03T07:43:36;55162.53;;;-146.72;54.74
40994;BME280;26722;43.212;27.932;2023-03-03T07:49:12;55170.97;;;-146.72;53.94
40994;BME280;26722;43.212;27.932;2023-03-03T07:51:40;55190.00;;;-146.72;54.02
40994;BME280;26722;43.212;27.932;2023-03-03T07:57:06;55175.22;;;-146.72;53.04
40994;BME280;26722;43.212;27.932;2023-03-03T07:59:44;55158.31;;;-146.72;53.33
40994;BME280;26722;43.212;27.932;2023-03-03T08:02:58;55162.53;;;-146.72;52.92
40994;BME280;26722;43.212;27.932;2023-03-03T08:05:41;55166.75;;;-146.72;52.78
40994;BME280;26722;43.212;27.932;2023-03-03T08:10:44;55166.75;;;-146.72;52.82
40994;BME280;26722;43.212;27.932;2023-03-03T08:13:20;55164.66;;;-146.72;53.22
40994;BME280;26722;43.212;27.932;2023-03-03T08:15:51;55154.09;;;-146.72;53.79
40994;BME280;26722;43.212;27.932;2023-03-03T08:20:50;55154.09;;;-146.72;52.31
40994;BME280;26722;43.212;27.932;2023-03-03T08:23:17;55137.22;;;-146.72;51.61
40994;BME280;26722;43.212;27.932;2023-03-03T08:25:43;55156.22;;;-146.72;51.64
40994;BME280;26722;43.212;27.932;2023-03-03T08:28:10;55149.88;;;-146.72;52.04
40994;BME280;26722;43.212;27.932;2023-03-03T08:30:35;55135.09;;;-146.72;52.09
40994;BME280;26722;43.212;27.932;2023-03-03T08:33:01;55137.22;;;-146.72;52.08
40994;BME280;26722;43.212;27.932;2023-03-03T08:35:26;55126.66;;;-146.72;51.57
40994;BME280;26722;43.212;27.932;2023-03-03T08:37:52;55137.22;;;-146.72;50.90
40994;BME280;26722;43.212;27.932;2023-03-03T08:40:17;55135.09;;;-146.72;49.93
40994;BME280;26722;43.212;27.932;2023-03-03T08:42:43;55132.97;;;-146.72;49.83
40994;BME280;26722;43.212;27.932;2023-03-03T08:45:08;55118.19;;;-146.72;50.16
40994;BME280;26722;43.212;27.932;2023-03-03T08:47:34;55124.53;;;-146.72;49.59
40994;BME280;26722;43.212;27.932;2023-03-03T08:49:59;55103.44;;;-146.72;49.61
40994;BME280;26722;43.212;27.932;2023-03-03T08:52:25;55122.44;;;-146.72;49.00
40994;BME280;26722;43.212;27.932;2023-03-03T08:54:51;55122.44;;;-146.72;48.29
40994;BME280;26722;43.212;27.932;2023-03-03T08:57:16;55092.88;;;-146.72;48.75
40994;BME280;26722;43.212;27.932;2023-03-03T08:59:43;55099.19;;;-146.72;49.43
40994;BME280;26722;43.212;27.932;2023-03-03T09:02:08;55111.88;;;-146.72;49.34
40994;BME280;26722;43.212;27.932;2023-03-03T09:04:34;55113.97;;;-146.72;49.29
40994;BME280;26722;43.212;27.932;2023-03-03T09:06:59;55099.19;;;-146.72;48.93
40994;BME280;26722;43.212;27.932;2023-03-03T09:09:25;55122.44;;;-146.72;48.47
40994;BME280;26722;43.212;27.932;2023-03-03T09:11:53;55103.44;;;-146.72;48.30
40994;BME280;26722;43.212;27.932;2023-03-03T09:14:26;55124.53;;;-146.72;48.71
40994;BME280;26722;43.212;27.932;2023-03-03T09:16:53;55132.97;;;-146.72;48.58
40994;BME280;26722;43.212;27.932;2023-03-03T09:21:54;55105.53;;;-146.72;48.75
40994;BME280;26722;43.212;27.932;2023-03-03T09:24:26;55120.31;;;-146.72;48.76
40994;BME280;26722;43.212;27.932;2023-03-03T09:26:53;55094.97;;;-146.72;48.92
40994;BME280;26722;43.212;27.932;2023-03-03T09:29:30;55116.09;;;-146.72;48.92
40994;BME280;26722;43.212;27.932;2023-03-03T09:32:01;55103.44;;;-146.72;48.50
40994;BME280;26722;43.212;27.932;2023-03-03T09:37:17;55120.31;;;-146.72;48.82
40994;BME280;26722;43.212;27.932;2023-03-03T09:39:45;55139.31;;;-146.72;48.40
40994;BME280;26722;43.212;27.932;2023-03-03T09:53:40;55118.19;;;-146.72;49.51
40994;BME280;26722;43.212;27.932;2023-03-03T09:58:47;55128.75;;;-146.72;49.70
40994;BME280;26722;43.212;27.932;2023-03-03T10:01:36;55116.09;;;-146.72;50.34
40994;BME280;26722;43.212;27.932;2023-03-03T10:04:14;55124.53;;;-146.72;50.14
40994;BME280;26722;43.212;27.932;2023-03-03T10:12:11;55107.66;;;-146.72;51.11
40994;BME280;26722;43.212;27.932;2023-03-03T10:17:31;55118.19;;;-146.72;50.14
40994;BME280;26722;43.212;27.932;2023-03-03T10:22:55;55120.31;;;-146.72;49.76
40994;BME280;26722;43.212;27.932;2023-03-03T10:31:32;55116.09;;;-146.72;50.23
40994;BME280;26722;43.212;27.932;2023-03-03T10:37:22;55111.88;;;-146.72;50.83
40994;BME280;26722;43.212;27.932;2023-03-03T10:48:00;55116.09;;;-146.72;50.67
40994;BME280;26722;43.212;27.932;2023-03-03T10:56:37;55111.88;;;-146.72;48.83
40994;BME280;26722;43.212;27.932;2023-03-03T11:01:47;55101.31;;;-146.72;48.45
40994;BME280;26722;43.212;27.932;2023-03-03T11:04:22;55107.66;;;-146.72;48.62
40994;BME280;26722;43.212;27.932;2023-03-03T11:07:11;55090.75;;;-146.72;47.09
40994;BME280;26722;43.212;27.932;2023-03-03T11:15:11;55107.66;;;-146.72;49.64
40994;BME280;26722;43.212;27.932;2023-03-03T11:23:20;55135.09;;;-146.72;50.89
40994;BME280;26722;43.212;27.932;2023-03-03T11:25:59;55126.66;;;-146.72;51.62
40994;BME280;26722;43.212;27.932;2023-03-03T11:31:11;55145.66;;;-146.72;52.27
40994;BME280;26722;43.212;27.932;2023-03-03T11:36:18;55158.31;;;-146.72;53.85
40994;BME280;26722;43.212;27.932;2023-03-03T11:39:04;55151.97;;;-146.72;54.13
40994;BME280;26722;43.212;27.932;2023-03-03T11:44:49;55145.66;;;-146.72;53.73
40994;BME280;26722;43.212;27.932;2023-03-03T11:50:03;55116.09;;;-146.72;53.71
40994;BME280;26722;43.212;27.932;2023-03-03T12:00:41;55116.09;;;-146.72;54.05
40994;BME280;26722;43.212;27.932;2023-03-03T12:12:13;55139.31;;;-146.72;54.71
40994;BME280;26722;43.212;27.932;2023-03-03T12:15:01;55151.97;;;-146.72;54.55
40994;BME280;26722;43.212;27.932;2023-03-03T12:17:57;55137.22;;;-146.72;54.77
40994;BME280;26722;43.212;27.932;2023-03-03T12:20:51;55149.88;;;-146.72;54.71
40994;BME280;26722;43.212;27.932;2023-03-03T12:26:26;55137.22;;;-146.72;55.02
40994;BME280;26722;43.212;27.932;2023-03-03T12:29:04;55128.75;;;-146.72;54.47
40994;BME280;26722;43.212;27.932;2023-03-03T12:31:49;55151.97;;;-146.72;55.21
40994;BME280;26722;43.212;27.932;2023-03-03T12:47:28;55166.75;;;-146.72;56.31
40994;BME280;26722;43.212;27.932;2023-03-03T12:50:01;55192.09;;;-146.72;56.37
40994;BME280;26722;43.212;27.932;2023-03-03T12:52:31;55149.88;;;-146.72;56.75
40994;BME280;26722;43.212;27.932;2023-03-03T12:55:10;55187.88;;;-146.72;57.02
40994;BME280;26722;43.212;27.932;2023-03-03T13:00:29;55160.44;;;-146.72;57.17
40994;BME280;26722;43.212;27.932;2023-03-03T13:03:39;55162.53;;;-146.72;57.20
40994;BME280;26722;43.212;27.932;2023-03-03T13:06:38;55158.31;;;-146.72;57.09
40994;BME280;26722;43.212;27.932;2023-03-03T13:18:28;55141.44;;;-146.72;55.93
40994;BME280;26722;43.212;27.932;2023-03-03T13:21:11;55145.66;;;-146.72;55.44
40994;BME280;26722;43.212;27.932;2023-03-03T13:23:53;55137.22;;;-146.72;54.89
40994;BME280;26722;43.212;27.932;2023-03-03T13:26:47;55156.22;;;-146.72;54.89
40994;BME280;26722;43.212;27.932;2023-03-03T13:29:26;55149.88;;;-146.72;55.31
40994;BME280;26722;43.212;27.932;2023-03-03T13:31:57;55137.22;;;-146.72;55.23
40994;BME280;26722;43.212;27.932;2023-03-03T13:37:09;55156.22;;;-146.72;55.48
40994;BME280;26722;43.212;27.932;2023-03-03T13:40:02;55145.66;;;-146.72;55.85
40994;BME280;26722;43.212;27.932;2023-03-03T13:42:39;55154.09;;;-146.72;56.23
40994;BME280;26722;43.212;27.932;2023-03-03T13:45:29;55137.22;;;-146.72;56.41
40994;BME280;26722;43.212;27.932;2023-03-03T13:48:33;55156.22;;;-146.72;56.27
40994;BME280;26722;43.212;27.932;2023-03-03T13:59:48;55137.22;;;-146.72;55.52
40994;BME280;26722;43.212;27.932;2023-03-03T14:07:37;55149.88;;;-146.72;56.48
40994;BME280;26722;43.212;27.932;2023-03-03T14:13:04;55145.66;;;-146.72;57.05
40994;BME280;26722;43.212;27.932;2023-03-03T14:20:46;55166.75;;;-146.72;58.14
40994;BME280;26722;43.212;27.932;2023-03-03T14:23:19;55158.31;;;-146.72;58.56
40994;BME280;26722;43.212;27.932;2023-03-03T14:28:21;55183.66;;;-146.72;58.65
40994;BME280;26722;43.212;27.932;2023-03-03T14:30:47;55177.31;;;-146.72;59.07
40994;BME280;26722;43.212;27.932;2023-03-03T14:35:39;55164.66;;;-146.72;60.00
40994;BME280;26722;43.212;27.932;2023-03-03T14:38:14;55179.44;;;-146.72;60.10
40994;BME280;26722;43.212;27.932;2023-03-03T14:40:44;55166.75;;;-146.72;60.16
40994;BME280;26722;43.212;27.932;2023-03-03T14:46:31;55156.22;;;-146.72;60.80
40994;BME280;26722;43.212;27.932;2023-03-03T14:49:30;55183.66;;;-146.72;61.32
40994;BME280;26722;43.212;27.932;2023-03-03T14:54:42;55183.66;;;-146.72;61.87
40994;BME280;26722;43.212;27.932;2023-03-03T14:57:20;55175.22;;;-146.72;62.15
40994;BME280;26722;43.212;27.932;2023-03-03T15:03:03;55187.88;;;-146.72;62.84
40994;BME280;26722;43.212;27.932;2023-03-03T15:05:51;55170.97;;;-146.72;62.90
40994;BME280;26722;43.212;27.932;2023-03-03T15:08:27;55192.09;;;-146.72;62.99
40994;BME280;26722;43.212;27.932;2023-03-03T15:13:38;55209.00;;;-146.72;64.22
40994;BME280;26722;43.212;27.932;2023-03-03T15:16:17;55173.09;;;-146.72;64.01
40994;BME280;26722;43.212;27.932;2023-03-03T15:21:28;55166.75;;;-146.72;64.29
40994;BME280;26722;43.212;27.932;2023-03-03T15:24:03;55183.66;;;-146.72;63.60
40994;BME280;26722;43.212;27.932;2023-03-03T15:26:45;55179.44;;;-146.72;63.78
40994;BME280;26722;43.212;27.932;2023-03-03T15:29:40;55181.53;;;-146.72;64.08
40994;BME280;26722;43.212;27.932;2023-03-03T15:32:24;55179.44;;;-146.72;64.33
40994;BME280;26722;43.212;27.932;2023-03-03T15:35:18;55183.66;;;-146.72;64.43
40994;BME280;26722;43.212;27.932;2023-03-03T15:37:58;55179.44;;;-146.72;64.77
40994;BME280;26722;43.212;27.932;2023-03-03T15:40:48;55187.88;;;-146.72;64.80
40994;BME280;26722;43.212;27.932;2023-03-03T15:49:12;55179.44;;;-146.72;65.09
40994;BME280;26722;43.212;27.932;2023-03-03T15:52:09;55170.97;;;-146.72;65.32
40994;BME280;26722;43.212;27.932;2023-03-03T16:03:00;55183.66;;;-146.72;66.08
40994;BME280;26722;43.212;27.932;2023-03-03T16:05:37;55173.09;;;-146.72;66.66
40994;BME280;26722;43.212;27.932;2023-03-03T16:08:17;55173.09;;;-146.72;66.80
40994;BME280;26722;43.212;27.932;2023-03-03T16:10:54;55173.09;;;-146.72;67.25
40994;BME280;26722;43.212;27.932;2023-03-03T16:13:47;55198.44;;;-146.72;67.54
40994;BME280;26722;43.212;27.932;2023-03-03T16:32:49;55177.31;;;-146.72;69.18